createdAt,value
2023-05-05T00:02:28.418Z,4.77
2023-05-05T00:05:16.512Z,6.33
2023-05-05T00:08:04.784Z,5.73
2023-05-05T00:10:54.721Z,4.97
2023-05-05T00:13:42.725Z,4.97
2023-05-05T00:16:30.752Z,4.67
2023-05-05T00:19:18.779Z,3.50
2023-05-05T00:22:07.041Z,4.53
2023-05-05T00:24:54.973Z,5.07
2023-05-05T00:27:44.327Z,6.70
2023-05-05T00:30:33.482Z,6.27
2023-05-05T00:33:21.537Z,7.30
2023-05-05T00:36:09.849Z,6.67
2023-05-05T00:38:57.803Z,5.60
2023-05-05T00:41:45.780Z,5.67
2023-05-05T00:44:41.055Z,9.03
2023-05-05T00:47:29.093Z,5.27
2023-05-05T00:50:24.593Z,4.47
2023-05-05T00:53:13.402Z,5.13
2023-05-05T00:56:01.375Z,6.20
2023-05-05T00:58:49.988Z,5.30
2023-05-05T01:01:39.455Z,8.23
2023-05-05T01:04:27.925Z,5.30
2023-05-05T01:07:26.749Z,6.20
2023-05-05T01:10:23.654Z,4.70
2023-05-05T01:13:22.420Z,4.47
2023-05-05T01:16:20.014Z,4.93
2023-05-05T01:19:22.597Z,5.47
2023-05-05T01:22:16.195Z,6.97
2023-05-05T01:25:27.504Z,4.87
2023-05-05T01:28:35.841Z,4.43
2023-05-05T01:31:53.803Z,9.53
2023-05-05T01:34:47.108Z,5.13
2023-05-05T01:37:43.338Z,6.07
2023-05-05T01:40:38.949Z,6.60
2023-05-05T01:43:30.487Z,7.17
2023-05-05T01:46:20.718Z,5.23
2023-05-05T01:49:11.054Z,8.47
2023-05-05T01:52:03.734Z,6.37
2023-05-05T01:54:53.749Z,4.77
2023-05-05T01:57:43.773Z,6.17
2023-05-05T02:00:32.730Z,5.97
2023-05-05T02:03:23.436Z,6.37
2023-05-05T02:06:13.275Z,6.17
2023-05-05T02:09:03.371Z,5.30
2023-05-05T02:11:52.062Z,6.20
2023-05-05T02:14:41.838Z,5.20
2023-05-05T02:17:31.097Z,7.13
2023-05-05T02:20:20.234Z,8.37
2023-05-05T02:23:09.500Z,6.33
2023-05-05T02:26:04.183Z,5.63
2023-05-05T02:29:02.134Z,6.77
2023-05-05T02:31:53.210Z,6.03
2023-05-05T02:34:43.814Z,4.90
2023-05-05T02:37:34.792Z,7.27
2023-05-05T02:40:27.299Z,5.77
2023-05-05T02:43:20.502Z,5.33
2023-05-05T02:46:09.257Z,5.63
2023-05-05T02:48:59.667Z,6.57
2023-05-05T02:51:47.697Z,5.43
2023-05-05T02:54:35.747Z,8.20
2023-05-05T02:57:28.639Z,5.93
2023-05-05T03:00:24.940Z,8.03
2023-05-05T03:03:23.589Z,6.07
2023-05-05T03:06:17.198Z,10.20
2023-05-05T03:09:11.005Z,5.37
2023-05-05T03:12:03.808Z,6.50
2023-05-05T03:14:55.215Z,7.70
2023-05-05T03:17:46.585Z,7.37
2023-05-05T03:20:35.462Z,5.50
2023-05-05T03:23:23.449Z,7.27
2023-05-05T03:26:11.431Z,6.63
2023-05-05T03:28:59.413Z,6.73
2023-05-05T03:31:47.407Z,5.90
2023-05-05T03:34:37.738Z,7.10
2023-05-05T03:37:25.741Z,6.03
2023-05-05T03:40:14.404Z,5.93
2023-05-05T03:43:02.410Z,5.27
2023-05-05T03:45:50.576Z,5.23
2023-05-05T03:48:38.641Z,5.60
2023-05-05T03:51:28.306Z,5.73
2023-05-05T03:54:16.680Z,5.37
2023-05-05T03:57:04.716Z,4.80
2023-05-05T03:59:52.687Z,5.33
2023-05-05T04:02:41.095Z,4.93
2023-05-05T04:05:29.140Z,4.50
2023-05-05T04:08:18.509Z,4.40
2023-05-05T04:11:07.034Z,5.43
2023-05-05T04:13:55.059Z,5.20
2023-05-05T04:16:43.032Z,4.80
2023-05-05T04:19:33.870Z,6.23
2023-05-05T04:22:21.823Z,5.13
2023-05-05T04:25:11.530Z,5.87
2023-05-05T04:28:00.605Z,5.87
2023-05-05T04:30:48.600Z,7.60
2023-05-05T04:33:36.599Z,5.23
2023-05-05T04:36:24.981Z,7.10
2023-05-05T04:39:13.051Z,5.17
2023-05-05T04:42:02.990Z,4.70
2023-05-05T04:44:50.919Z,3.90
2023-05-05T04:47:39.834Z,4.50
2023-05-05T04:50:27.960Z,4.50
2023-05-05T04:53:16.361Z,5.70
2023-05-05T04:56:04.348Z,7.63
2023-05-05T04:58:53.805Z,4.60
2023-05-05T05:01:42.111Z,7.20
2023-05-05T05:04:30.280Z,4.00
2023-05-05T05:07:18.300Z,6.43
2023-05-05T05:10:07.518Z,4.73
2023-05-05T05:12:55.741Z,5.20
2023-05-05T05:15:46.030Z,4.30
2023-05-05T05:18:34.036Z,5.07
2023-05-05T05:21:22.314Z,5.20
2023-05-05T05:24:11.467Z,6.13
2023-05-05T05:26:59.462Z,5.30
2023-05-05T05:29:47.406Z,5.47
2023-05-05T05:32:36.739Z,5.13
2023-05-05T05:35:24.798Z,5.30
2023-05-05T05:38:12.793Z,6.13
2023-05-05T05:41:01.135Z,7.50
2023-05-05T05:43:49.191Z,5.40
2023-05-05T05:46:37.116Z,4.93
2023-05-05T05:49:26.417Z,6.40
2023-05-05T05:52:14.407Z,4.53
2023-05-05T05:55:02.328Z,5.03
2023-05-05T05:57:50.276Z,6.17
2023-05-05T06:00:38.191Z,5.50
2023-05-05T06:03:26.606Z,4.77
2023-05-05T06:06:16.017Z,5.47
2023-05-05T06:09:04.088Z,6.93
2023-05-05T06:11:52.066Z,4.10
2023-05-05T06:14:40.000Z,7.60
2023-05-05T06:17:27.930Z,5.53
2023-05-05T06:20:15.969Z,5.30
2023-05-05T06:23:05.256Z,4.90
2023-05-05T06:25:54.583Z,6.60
2023-05-05T06:28:42.487Z,6.33
2023-05-05T06:31:30.607Z,4.47
2023-05-05T06:34:18.951Z,4.03
2023-05-05T06:37:06.830Z,4.93
2023-05-05T06:39:56.823Z,5.30
2023-05-05T06:42:44.775Z,5.13
2023-05-05T06:45:32.729Z,5.30
2023-05-05T06:48:20.682Z,4.83
2023-05-05T06:51:08.603Z,5.00
2023-05-05T06:53:56.512Z,6.80
2023-05-05T06:56:46.121Z,4.33
2023-05-05T06:59:34.016Z,5.63
2023-05-05T07:02:22.554Z,4.77
2023-05-05T07:05:11.735Z,4.77
2023-05-05T07:07:59.982Z,6.63
2023-05-05T07:10:47.999Z,4.50
2023-05-05T07:13:37.253Z,4.30
2023-05-05T07:16:27.010Z,5.10
2023-05-05T07:19:14.925Z,5.83
2023-05-05T07:22:03.042Z,6.53
2023-05-05T07:24:53.266Z,5.03
2023-05-05T07:27:41.695Z,4.97
2023-05-05T07:30:30.981Z,4.37
2023-05-05T07:33:19.444Z,5.67
2023-05-05T07:36:07.697Z,6.63
2023-05-05T07:38:55.938Z,4.50
2023-05-05T07:41:44.510Z,6.30
2023-05-05T07:44:32.530Z,4.60
2023-05-05T07:47:21.940Z,4.37
2023-05-05T07:50:10.665Z,4.73
2023-05-05T07:53:10.935Z,4.43
2023-05-05T07:56:02.694Z,6.60
2023-05-05T07:58:50.617Z,7.33
2023-05-05T08:01:38.642Z,6.40
2023-05-05T08:04:27.985Z,4.07
2023-05-05T08:07:15.937Z,4.97
2023-05-05T08:10:03.994Z,4.57
2023-05-05T08:12:51.996Z,4.20
2023-05-05T08:15:39.979Z,5.57
2023-05-05T08:18:27.872Z,4.50
2023-05-05T08:21:18.514Z,4.37
2023-05-05T08:24:06.784Z,5.23
2023-05-05T08:26:56.725Z,5.43
2023-05-05T08:29:44.860Z,5.27
2023-05-05T08:32:33.050Z,7.20
2023-05-05T08:35:21.219Z,6.10
2023-05-05T08:38:11.329Z,4.50
2023-05-05T08:40:59.295Z,6.27
2023-05-05T08:43:49.171Z,5.80
2023-05-05T08:46:37.864Z,4.67
2023-05-05T08:49:27.203Z,5.47
2023-05-05T08:52:17.210Z,5.97
2023-05-05T08:55:14.891Z,6.40
2023-05-05T08:58:04.279Z,5.00
2023-05-05T09:00:53.256Z,4.93
2023-05-05T09:03:41.686Z,5.70
2023-05-05T09:06:32.123Z,6.03
2023-05-05T09:09:21.186Z,5.00
2023-05-05T09:12:10.568Z,6.57
2023-05-05T09:14:59.370Z,5.07
2023-05-05T09:17:48.276Z,5.23
2023-05-05T09:20:38.089Z,5.23
2023-05-05T09:23:25.979Z,8.77
2023-05-05T09:26:14.403Z,6.43
2023-05-05T09:29:04.441Z,6.03
2023-05-05T09:32:05.545Z,5.90
2023-05-05T09:35:01.036Z,6.37
2023-05-05T09:37:49.282Z,7.13
2023-05-05T09:40:47.289Z,8.30
2023-05-05T09:43:51.857Z,8.10
2023-05-05T09:46:51.477Z,7.80
2023-05-05T09:49:39.882Z,6.83
2023-05-05T09:52:27.824Z,7.17
2023-05-05T09:55:18.981Z,8.07
2023-05-05T09:58:23.645Z,8.70
2023-05-05T10:01:23.687Z,9.67
2023-05-05T10:04:24.943Z,11.03
2023-05-05T10:07:23.881Z,10.03
2023-05-05T10:10:13.262Z,9.67
2023-05-05T10:13:01.475Z,13.33
2023-05-05T10:15:51.870Z,12.73
2023-05-05T10:18:44.149Z,12.30
2023-05-05T10:21:41.934Z,10.53
2023-05-05T10:24:35.751Z,13.83
2023-05-05T10:27:25.841Z,12.60
2023-05-05T10:30:21.496Z,13.17
2023-05-05T10:33:31.019Z,12.27
2023-05-05T10:36:21.514Z,13.23
2023-05-05T10:39:11.903Z,12.90
2023-05-05T10:42:02.708Z,13.13
2023-05-05T10:44:51.257Z,18.70
2023-05-05T10:47:40.341Z,16.30
2023-05-05T10:50:33.519Z,15.70
2023-05-05T10:53:24.986Z,14.83
2023-05-05T10:56:25.302Z,15.10
2023-05-05T10:59:40.729Z,14.43
2023-05-05T11:02:30.059Z,17.37
2023-05-05T11:05:21.140Z,14.60
2023-05-05T11:08:27.295Z,15.50
2023-05-05T11:11:16.726Z,13.93
2023-05-05T11:14:22.842Z,18.47
2023-05-05T11:17:47.130Z,16.70
2023-05-05T11:21:02.837Z,14.57
2023-05-05T11:23:52.092Z,15.37
2023-05-05T11:26:53.679Z,13.00
2023-05-05T11:30:07.563Z,11.53
2023-05-05T11:33:26.069Z,12.30
2023-05-05T11:36:15.874Z,11.53
2023-05-05T11:39:19.148Z,11.50
2023-05-05T11:42:25.597Z,12.80
2023-05-05T11:45:24.048Z,12.83
2023-05-05T11:48:28.112Z,14.10
2023-05-05T11:51:17.335Z,11.97
2023-05-05T11:54:06.161Z,12.93
2023-05-05T11:56:55.265Z,12.93
2023-05-05T11:59:54.885Z,13.23
2023-05-05T12:02:42.890Z,11.50
2023-05-05T12:05:30.939Z,12.07
2023-05-05T12:08:20.137Z,12.10
2023-05-05T12:11:10.479Z,13.10
2023-05-05T12:14:11.322Z,13.00
2023-05-05T12:17:02.357Z,10.80
2023-05-05T12:19:52.117Z,12.17
2023-05-05T12:22:40.324Z,12.20
2023-05-05T12:25:36.868Z,14.07
2023-05-05T12:28:24.847Z,12.97
2023-05-05T12:31:13.076Z,15.40
2023-05-05T12:34:02.996Z,13.87
2023-05-05T12:36:51.329Z,16.63
2023-05-05T12:39:39.296Z,13.27
2023-05-05T12:42:27.273Z,13.77
2023-05-05T12:45:18.496Z,14.33
2023-05-05T12:48:24.243Z,13.47
2023-05-05T12:51:18.713Z,12.00
2023-05-05T12:54:08.370Z,13.37
2023-05-05T12:56:57.399Z,12.87
2023-05-05T12:59:45.375Z,14.23
2023-05-05T13:02:35.384Z,12.00
2023-05-05T13:05:41.515Z,15.57
2023-05-05T13:08:44.998Z,16.80
2023-05-05T13:11:37.188Z,15.13
2023-05-05T13:14:25.289Z,12.80
2023-05-05T13:17:13.683Z,11.47
2023-05-05T13:20:01.631Z,12.17
2023-05-05T13:22:49.549Z,12.53
2023-05-05T13:25:38.832Z,14.67
2023-05-05T13:28:26.750Z,13.77
2023-05-05T13:31:14.713Z,16.23
2023-05-05T13:34:02.745Z,12.43
2023-05-05T13:36:50.643Z,13.43
2023-05-05T13:39:38.646Z,13.57
2023-05-05T13:42:27.952Z,14.83
2023-05-05T13:45:17.372Z,13.57
2023-05-05T13:48:06.082Z,17.07
2023-05-05T13:50:54.116Z,14.13
2023-05-05T13:53:43.988Z,14.40
2023-05-05T13:56:31.961Z,15.10
2023-05-05T13:59:21.796Z,14.80
2023-05-05T14:02:09.778Z,13.93
2023-05-05T14:04:57.694Z,15.53
2023-05-05T14:07:46.385Z,16.70
2023-05-05T14:10:34.292Z,16.93
2023-05-05T14:13:22.997Z,17.70
2023-05-05T14:16:12.532Z,17.97
2023-05-05T14:19:00.555Z,16.40
2023-05-05T14:21:48.479Z,20.20
2023-05-05T14:24:36.626Z,18.30
2023-05-05T14:27:24.662Z,18.33
2023-05-05T14:30:13.604Z,9.73
2023-05-05T14:33:03.145Z,9.13
2023-05-05T14:35:51.270Z,8.60
2023-05-05T14:38:39.190Z,6.03
2023-05-05T14:41:27.210Z,8.80
2023-05-05T14:44:15.150Z,7.17
2023-05-05T14:47:03.140Z,6.77
2023-05-05T14:49:52.832Z,6.97
2023-05-05T14:52:41.008Z,7.17
2023-05-05T14:55:29.178Z,7.07
2023-05-05T14:58:18.671Z,6.57
2023-05-05T15:01:06.763Z,7.57
2023-05-05T15:03:54.924Z,7.73
2023-05-05T15:06:44.361Z,7.93
2023-05-05T15:09:32.285Z,7.33
2023-05-05T15:12:20.184Z,7.30
2023-05-05T15:15:09.476Z,7.83
2023-05-05T15:17:57.588Z,8.73
2023-05-05T15:20:45.534Z,10.13
2023-05-05T15:23:34.971Z,8.27
2023-05-05T15:26:23.853Z,7.97
2023-05-05T15:29:11.734Z,8.27
2023-05-05T15:31:59.774Z,8.23
2023-05-05T15:34:50.095Z,9.67
2023-05-05T15:37:38.617Z,7.87
2023-05-05T15:40:27.899Z,8.90
2023-05-05T15:43:15.971Z,7.60
2023-05-05T15:46:03.981Z,7.50
2023-05-05T15:48:51.921Z,7.07
2023-05-05T15:51:39.950Z,7.33
2023-05-05T15:54:27.888Z,7.30
2023-05-05T15:57:17.704Z,6.93
2023-05-05T16:00:07.783Z,6.00
2023-05-05T16:02:56.144Z,7.50
2023-05-05T16:05:44.228Z,6.20
2023-05-05T16:08:32.109Z,6.20
2023-05-05T16:11:22.414Z,5.80
2023-05-05T16:14:11.890Z,6.80
2023-05-05T16:17:01.114Z,6.07
2023-05-05T16:19:49.604Z,5.23
2023-05-05T16:22:37.681Z,5.07
2023-05-05T16:25:25.711Z,5.60
2023-05-05T16:28:15.378Z,5.67
2023-05-05T16:31:04.750Z,5.60
2023-05-05T16:33:52.824Z,6.00
2023-05-05T16:36:42.478Z,6.07
2023-05-05T16:39:33.930Z,6.10
2023-05-05T16:42:22.617Z,6.77
2023-05-05T16:45:11.522Z,6.37
2023-05-05T16:48:01.160Z,6.80
2023-05-05T16:50:49.985Z,7.83
2023-05-05T16:53:37.888Z,7.17
2023-05-05T16:56:25.796Z,7.53
2023-05-05T16:59:15.607Z,7.20
2023-05-05T17:02:03.624Z,7.50
2023-05-05T17:04:53.117Z,6.67
2023-05-05T17:07:41.286Z,7.10
2023-05-05T17:10:29.317Z,6.73
2023-05-05T17:13:17.279Z,6.77
2023-05-05T17:16:06.566Z,8.33
2023-05-05T17:18:54.970Z,7.03
2023-05-05T17:21:44.254Z,6.80
2023-05-05T17:24:32.142Z,6.83
2023-05-05T17:27:20.122Z,6.83
2023-05-05T17:30:09.256Z,7.40
2023-05-05T17:32:57.621Z,7.43
2023-05-05T17:35:45.644Z,6.77
2023-05-05T17:38:34.933Z,7.20
2023-05-05T17:41:22.896Z,6.40
2023-05-05T17:44:10.790Z,6.03
2023-05-05T17:46:59.119Z,7.80
2023-05-05T17:49:47.249Z,5.97
2023-05-05T17:52:35.168Z,7.43
2023-05-05T17:55:25.745Z,7.07
2023-05-05T17:58:13.765Z,7.30
2023-05-05T18:01:01.896Z,6.67
2023-05-05T18:03:49.994Z,7.10
2023-05-05T18:06:38.320Z,8.27
2023-05-05T18:09:26.234Z,8.80
2023-05-05T18:12:15.522Z,8.00
2023-05-05T18:15:03.757Z,8.10
2023-05-05T18:17:51.691Z,7.07
2023-05-05T18:20:39.676Z,7.47
2023-05-05T18:23:27.853Z,6.87
2023-05-05T18:26:15.808Z,8.37
2023-05-05T18:29:05.147Z,8.40
2023-05-05T18:31:54.734Z,8.67
2023-05-05T18:34:42.822Z,11.97
2023-05-05T18:37:30.749Z,10.10
2023-05-05T18:40:18.933Z,9.83
2023-05-05T18:43:07.467Z,8.67
2023-05-05T18:45:56.920Z,8.97
2023-05-05T18:48:44.795Z,9.20
2023-05-05T18:51:32.936Z,8.57
2023-05-05T18:54:22.033Z,8.87
2023-05-05T18:57:09.957Z,8.67
2023-05-05T18:59:57.891Z,7.67
2023-05-05T19:02:47.205Z,8.23
2023-05-05T19:05:35.400Z,7.50
2023-05-05T19:08:23.668Z,8.77
2023-05-05T19:11:11.673Z,8.23
2023-05-05T19:13:59.613Z,5.73
2023-05-05T19:16:47.829Z,4.07
2023-05-05T19:19:37.237Z,4.50
2023-05-05T19:22:25.648Z,3.50
2023-05-05T19:25:14.651Z,3.90
2023-05-05T19:28:02.563Z,5.23
2023-05-05T19:30:50.505Z,3.50
2023-05-05T19:33:38.427Z,1.97
2023-05-05T19:36:28.648Z,4.10
2023-05-05T19:39:16.614Z,3.47
2023-05-05T19:42:04.781Z,3.73
2023-05-05T19:44:52.718Z,1.90
2023-05-05T19:47:40.709Z,3.30
2023-05-05T19:50:30.377Z,3.83
2023-05-05T19:53:19.770Z,2.30
2023-05-05T19:56:07.928Z,3.00
2023-05-05T19:59:00.435Z,3.23
2023-05-05T20:01:48.551Z,2.57
2023-05-05T20:04:36.835Z,5.43
2023-05-05T20:07:24.826Z,4.33
2023-05-05T20:10:14.293Z,4.00
2023-05-05T20:13:02.346Z,2.50
2023-05-05T20:15:50.436Z,2.30
2023-05-05T20:18:38.453Z,2.40
2023-05-05T20:21:26.819Z,2.57
2023-05-05T20:24:14.891Z,4.13
2023-05-05T20:27:05.214Z,3.87
2023-05-05T20:29:53.668Z,4.57
2023-05-05T20:32:42.273Z,3.27
2023-05-05T20:35:30.427Z,2.50
2023-05-05T20:38:18.361Z,4.27
2023-05-05T20:41:06.345Z,2.33
2023-05-05T20:43:55.688Z,3.50
2023-05-05T20:46:43.831Z,4.13
2023-05-05T20:49:31.812Z,3.43
2023-05-05T20:52:19.911Z,3.13
2023-05-05T20:55:08.335Z,3.43
2023-05-05T20:57:56.315Z,2.90
2023-05-05T21:00:45.670Z,3.13
2023-05-05T21:03:33.739Z,2.80
2023-05-05T21:06:21.678Z,2.53
2023-05-05T21:09:09.595Z,2.23
2023-05-05T21:11:57.623Z,2.50
2023-05-05T21:14:46.008Z,3.00
2023-05-05T21:17:35.377Z,2.57
2023-05-05T21:20:23.523Z,2.63
2023-05-05T21:23:11.813Z,2.63
2023-05-05T21:26:00.569Z,2.60
2023-05-05T21:28:48.567Z,3.07
2023-05-05T21:31:36.620Z,3.33
2023-05-05T21:34:26.117Z,3.20
2023-05-05T21:37:14.085Z,2.67
2023-05-05T21:40:02.073Z,2.93
2023-05-05T21:42:50.050Z,3.30
2023-05-05T21:45:38.015Z,3.20
2023-05-05T21:48:26.008Z,3.30
2023-05-05T21:51:15.465Z,3.10
2023-05-05T21:54:03.632Z,4.00
2023-05-05T21:56:51.702Z,4.90
2023-05-05T21:59:39.660Z,3.40
2023-05-05T22:02:27.681Z,4.13
2023-05-05T22:05:15.762Z,6.00
2023-05-05T22:08:05.590Z,2.60
2023-05-05T22:10:53.622Z,3.13
2023-05-05T22:13:41.787Z,3.70
2023-05-05T22:16:29.901Z,4.03
2023-05-05T22:19:18.019Z,2.90
2023-05-05T22:22:05.980Z,2.97
2023-05-05T22:24:55.305Z,2.77
2023-05-05T22:27:43.252Z,2.93
2023-05-05T22:30:31.398Z,14.63
2023-05-05T22:33:19.305Z,85.90
2023-05-05T22:36:08.979Z,30.40
2023-05-05T22:38:56.987Z,46.93
2023-05-05T22:41:46.489Z,80.57
2023-05-05T22:44:34.732Z,22.13
2023-05-05T22:47:22.824Z,17.90
2023-05-05T22:50:11.689Z,25.73
2023-05-05T22:52:59.718Z,14.40
2023-05-05T22:55:47.672Z,3.20
2023-05-05T22:58:37.035Z,2.73
2023-05-05T23:01:25.398Z,3.17
2023-05-05T23:04:13.554Z,6.87
2023-05-05T23:07:01.732Z,24.07
2023-05-05T23:09:49.802Z,16.90
2023-05-05T23:12:37.872Z,3.57
2023-05-05T23:15:27.491Z,4.50
2023-05-05T23:18:15.523Z,4.80
2023-05-05T23:21:03.796Z,6.00
2023-05-05T23:23:51.733Z,5.40
2023-05-05T23:26:39.760Z,4.53
2023-05-05T23:29:27.690Z,5.87
2023-05-05T23:32:17.060Z,6.53
2023-05-05T23:35:05.467Z,5.90
2023-05-05T23:37:53.429Z,4.40
2023-05-05T23:40:41.416Z,4.83
2023-05-05T23:43:29.486Z,5.03
2023-05-05T23:46:17.597Z,5.00
2023-05-05T23:49:06.881Z,5.90
2023-05-05T23:51:54.954Z,4.83
2023-05-05T23:54:42.964Z,4.57
2023-05-05T23:57:31.270Z,5.07
